<?xml version='1.0' encoding='UTF-8'?>
<gpx xmlns="http://www.topografix.com/GPX/1/1" creator="www.balnam.be" version="1.1" xmlns:xsi="http://www.w3.org/2001/XMLSchema-instance" xsi:schemaLocation="http://www.topografix.com/GPX/1/1 http://www.topografix.com/GPX/1/1/gpx.xsd">
<trk>
<name>nvssg50</name>
<cmt>v</cmt>
<desc>Sugny Chemin n°50 </desc>
<link href="https://chemins.be/sugny/chemin/50"/><trkseg>
<trkpt lat="49.813853" lon="4.891785"><time>2026-05-02T22:46:53Z</time></trkpt>
<trkpt lat="49.812459" lon="4.889825"><time>2026-05-02T22:56:53Z</time></trkpt>
<trkpt lat="49.811410" lon="4.889063"><time>2026-05-02T23:06:53Z</time></trkpt>
<trkpt lat="49.810695" lon="4.888180"><time>2026-05-02T23:16:53Z</time></trkpt>
<trkpt lat="49.810231" lon="4.887341"><time>2026-05-02T23:26:53Z</time></trkpt>
<trkpt lat="49.809993" lon="4.886422"><time>2026-05-02T23:36:53Z</time></trkpt>
<trkpt lat="49.809000" lon="4.885174"><time>2026-05-02T23:46:53Z</time></trkpt>
<trkpt lat="49.807408" lon="4.883462"><time>2026-05-02T23:56:53Z</time></trkpt>
<trkpt lat="49.806932" lon="4.883249"><time>2026-05-03T00:06:53Z</time></trkpt>
<trkpt lat="49.806639" lon="4.882565"><time>2026-05-03T00:16:53Z</time></trkpt>
<trkpt lat="49.806302" lon="4.881436"><time>2026-05-03T00:26:53Z</time></trkpt>
<trkpt lat="49.805307" lon="4.878717"><time>2026-05-03T00:36:53Z</time></trkpt>
<trkpt lat="49.804649" lon="4.877112"><time>2026-05-03T00:46:53Z</time></trkpt>
<trkpt lat="49.804242" lon="4.875719"><time>2026-05-03T00:56:53Z</time></trkpt>
<trkpt lat="49.804262" lon="4.875122"><time>2026-05-03T01:06:53Z</time></trkpt>
<trkpt lat="49.803738" lon="4.873616"><time>2026-05-03T01:16:53Z</time></trkpt>
<trkpt lat="49.803041" lon="4.872747"><time>2026-05-03T01:26:53Z</time></trkpt>
<trkpt lat="49.802216" lon="4.872155"><time>2026-05-03T01:36:53Z</time></trkpt>
<trkpt lat="49.801077" lon="4.871532"><time>2026-05-03T01:46:53Z</time></trkpt>
<trkpt lat="49.799028" lon="4.871469"><time>2026-05-03T01:56:53Z</time></trkpt>
<trkpt lat="49.796985" lon="4.867850"><time>2026-05-03T02:06:53Z</time></trkpt>
<trkpt lat="49.796314" lon="4.867428"><time>2026-05-03T02:16:53Z</time></trkpt>
<trkpt lat="49.794985" lon="4.866276"><time>2026-05-03T02:26:53Z</time></trkpt>
<trkpt lat="49.794488" lon="4.865018"><time>2026-05-03T02:36:53Z</time></trkpt>
<trkpt lat="49.793837" lon="4.863956"><time>2026-05-03T02:46:53Z</time></trkpt>
<trkpt lat="49.791100" lon="4.862692"><time>2026-05-03T02:56:53Z</time></trkpt>
<trkpt lat="49.789478" lon="4.861439"><time>2026-05-03T03:06:53Z</time></trkpt>
</trkseg>
</trk>
</gpx>